Time;durP1;ratioP1;P1;durP2;ratioP2;P2;SDS_P1;SDS_P2;PMS_P1;PMS_P2;Temp;Humidity;BMP_temperature;BMP_pressure;BME280_temperature;BME280_humidity;BME280_pressure;Samples;Min_cycle;Max_cycle;Signal;HPM_P1;HPM_P2
2021/05/25 00:08:35;;;;;;;1.30;1.20;;;;;;;;;;13014169;22;20217;-77
2021/05/25 00:13:43;;;;;;;2.47;1.10;;;;;;;;;;13037028;22;20174;-78
2021/05/25 00:18:46;;;;;;;1.70;1.10;;;;;;;;;;13034155;22;20217;-77
2021/05/25 00:23:49;;;;;;;2.53;1.50;;;;;;;;;;13036737;22;20288;-78
2021/05/25 00:28:55;;;;;;;1.10;0.87;;;;;;;;;;13037038;22;20811;-78
2021/05/25 00:34:01;;;;;;;0.87;0.87;;;;;;;;;;13032202;22;20232;-78
2021/05/25 00:39:04;;;;;;;2.47;0.90;;;;;;;;;;13037154;22;20526;-77
2021/05/25 00:44:09;;;;;;;1.50;0.90;;;;;;;;;;13034926;22;20210;-78
2021/05/25 00:49:15;;;;;;;1.20;0.90;;;;;;;;;;13033654;22;20236;-78
2021/05/25 00:54:18;;;;;;;1.03;0.90;;;;;;;;;;13035681;22;20173;-78
2021/05/25 00:59:23;;;;;;;1.10;1.00;;;;;;;;;;13036394;22;20184;-79
2021/05/25 01:04:28;;;;;;;1.13;0.93;;;;;;;;;;13031558;22;20201;-79
2021/05/25 01:09:39;;;;;;;0.80;0.80;;;;;;;;;;13036250;22;20182;-79
2021/05/25 01:14:47;;;;;;;0.80;0.80;;;;;;;;;;13034734;22;20264;-79
2021/05/25 01:19:51;;;;;;;3.43;1.10;;;;;;;;;;13031704;22;20170;-79
2021/05/25 01:24:55;;;;;;;1.27;1.00;;;;;;;;;;13033011;22;20683;-79
2021/05/25 01:29:58;;;;;;;2.50;1.20;;;;;;;;;;13031914;22;20251;-79
2021/05/25 01:35:05;;;;;;;2.40;1.50;;;;;;;;;;13029220;22;20174;-78
2021/05/25 01:40:09;;;;;;;2.40;1.60;;;;;;;;;;13034219;22;20551;-79
2021/05/25 01:45:14;;;;;;;2.70;1.50;;;;;;;;;;13031973;22;20197;-79
2021/05/25 01:50:24;;;;;;;3.03;1.70;;;;;;;;;;13030796;22;20185;-78
2021/05/25 01:55:29;;;;;;;3.97;1.90;;;;;;;;;;13033329;22;20184;-78
2021/05/25 02:00:33;;;;;;;2.37;1.80;;;;;;;;;;13030375;22;20169;-78
2021/05/25 02:05:38;;;;;;;2.87;1.90;;;;;;;;;;13029181;22;20656;-78
2021/05/25 02:10:45;;;;;;;3.17;2.20;;;;;;;;;;13035682;22;20634;-78
2021/05/25 02:15:48;;;;;;;4.37;2.40;;;;;;;;;;13032632;22;20181;-77
2021/05/25 02:20:52;;;;;;;3.83;2.20;;;;;;;;;;13033745;22;20197;-78
2021/05/25 02:25:56;;;;;;;4.13;2.40;;;;;;;;;;13035173;22;20205;-78
2021/05/25 02:30:59;;;;;;;5.20;2.50;;;;;;;;;;13036133;22;20177;-78
2021/05/25 02:36:09;;;;;;;4.40;2.50;;;;;;;;;;13033552;22;20174;-78
2021/05/25 02:41:35;;;;;;;5.13;2.60;;;;;;;;;;13034636;22;20549;-79
2021/05/25 02:46:45;;;;;;;5.83;2.60;;;;;;;;;;13005625;22;20174;-78
2021/05/25 02:51:49;;;;;;;4.43;2.70;;;;;;;;;;13035502;22;20180;-78
2021/05/25 02:56:57;;;;;;;7.27;2.97;;;;;;;;;;13031830;22;20170;-78
2021/05/25 03:02:01;;;;;;;7.53;3.00;;;;;;;;;;13032669;22;20779;-79
2021/05/25 03:07:06;;;;;;;5.37;2.90;;;;;;;;;;13033852;22;20496;-78
2021/05/25 03:12:11;;;;;;;5.00;3.00;;;;;;;;;;13035250;22;20166;-79
2021/05/25 03:17:22;;;;;;;4.20;2.53;;;;;;;;;;13029977;22;20533;-78
2021/05/25 03:22:27;;;;;;;4.87;2.60;;;;;;;;;;13036184;22;20209;-78
2021/05/25 03:27:38;;;;;;;5.23;2.70;;;;;;;;;;13031851;22;20182;-78
2021/05/25 03:32:42;;;;;;;5.00;2.70;;;;;;;;;;13031352;22;20257;-78
2021/05/25 03:38:06;;;;;;;;;;;;;;;;;;;;;
2021/05/25 03:43:20;;;;;;;4.73;2.70;;;;;;;;;;13035184;22;20509;-78
2021/05/25 03:48:28;;;;;;;4.70;2.73;;;;;;;;;;13030568;22;20205;-77
2021/05/25 03:53:53;;;;;;;7.23;2.90;;;;;;;;;;13033133;22;20182;-77
2021/05/25 03:58:56;;;;;;;5.07;2.60;;;;;;;;;;12997707;22;20173;-77
2021/05/25 04:04:02;;;;;;;4.63;2.63;;;;;;;;;;13009394;22;20237;-78
2021/05/25 04:09:06;;;;;;;5.73;2.50;;;;;;;;;;13031914;22;20181;-79
2021/05/25 04:14:12;;;;;;;4.57;2.77;;;;;;;;;;13032798;22;20182;-77
2021/05/25 04:19:16;;;;;;;4.73;2.70;;;;;;;;;;13029984;22;20391;-77
2021/05/25 04:24:19;;;;;;;5.07;3.00;;;;;;;;;;13036377;22;20607;-77
2021/05/25 04:29:24;;;;;;;3.73;2.20;;;;;;;;;;13034644;22;20177;-79
2021/05/25 04:34:34;;;;;;;4.63;2.90;;;;;;;;;;13034182;22;20272;-79
2021/05/25 04:39:37;;;;;;;6.03;3.10;;;;;;;;;;13036213;22;20499;-78
2021/05/25 04:44:44;;;;;;;6.37;2.70;;;;;;;;;;13036946;22;20233;-79
2021/05/25 04:49:48;;;;;;;4.97;2.60;;;;;;;;;;13032356;22;20231;-77
2021/05/25 04:54:50;;;;;;;4.03;2.50;;;;;;;;;;13038594;22;20330;-80
2021/05/25 04:59:56;;;;;;;6.33;3.00;;;;;;;;;;13035557;22;20228;-81
2021/05/25 05:05:19;;;;;;;5.60;2.80;;;;;;;;;;13033404;22;20209;-79
2021/05/25 05:10:26;;;;;;;4.30;2.67;;;;;;;;;;13034700;22;20178;-78
2021/05/25 05:15:30;;;;;;;7.30;3.00;;;;;;;;;;13036673;22;20184;-77
2021/05/25 05:20:33;;;;;;;4.23;2.80;;;;;;;;;;13031105;22;20174;-78
2021/05/25 05:25:37;;;;;;;5.70;2.83;;;;;;;;;;13036454;22;20714;-79
2021/05/25 05:30:47;;;;;;;6.07;2.93;;;;;;;;;;13034249;22;20178;-78
2021/05/25 05:35:52;;;;;;;4.33;2.70;;;;;;;;;;13034658;22;20174;-78
2021/05/25 05:41:03;;;;;;;4.47;2.90;;;;;;;;;;13032275;22;20198;-78
2021/05/25 05:46:08;;;;;;;4.40;3.00;;;;;;;;;;13035241;22;20197;-79
2021/05/25 05:51:30;;;;;;;4.20;2.73;;;;;;;;;;13035638;22;20188;-78
2021/05/25 05:56:42;;;;;;;9.43;3.00;;;;;;;;;;13032620;22;20570;-77
2021/05/25 06:01:53;;;;;;;5.10;2.73;;;;;;;;;;13033495;22;20194;-77
2021/05/25 06:07:01;;;;;;;5.70;2.87;;;;;;;;;;13032220;22;20702;-78
2021/05/25 06:18:13;;;;;;;6.10;2.70;;;;;;;;;;13032649;22;20245;-78
2021/05/25 06:23:31;;;;;;;4.63;2.70;;;;;;;;;;13035194;22;20205;-78
2021/05/25 06:28:44;;;;;;;4.37;2.93;;;;;;;;;;13033214;22;20204;-78
2021/05/25 06:33:55;;;;;;;6.17;2.97;;;;;;;;;;13033672;22;20973;-78
2021/05/25 06:39:08;;;;;;;6.43;2.70;;;;;;;;;;13035704;22;20173;-77
2021/05/25 06:44:16;;;;;;;3.80;2.90;;;;;;;;;;13034527;22;20236;-77
2021/05/25 06:49:25;;;;;;;4.07;2.53;;;;;;;;;;13031690;22;20169;-78
2021/05/25 06:54:35;;;;;;;5.80;2.40;;;;;;;;;;13034228;22;20162;-79
2021/05/25 06:59:49;;;;;;;3.93;2.20;;;;;;;;;;13033376;22;20246;-79
2021/05/25 07:04:54;;;;;;;4.20;2.13;;;;;;;;;;13030482;22;20280;-79
2021/05/25 07:10:25;;;;;;;5.30;2.00;;;;;;;;;;13032221;22;20174;-79
2021/05/25 07:15:45;;;;;;;6.13;2.10;;;;;;;;;;13034669;22;20200;-78
2021/05/25 07:21:19;;;;;;;5.30;1.90;;;;;;;;;;12834470;23;20182;-78
2021/05/25 07:32:24;;;;;;;7.60;2.00;;;;;;;;;;12831664;23;20577;-78
2021/05/25 07:48:45;;;;;;;4.43;2.10;;;;;;;;;;12997248;22;20178;-77
2021/05/25 07:53:50;;;;;;;6.57;2.40;;;;;;;;;;13032623;22;20213;-78
2021/05/25 07:58:55;;;;;;;7.63;2.20;;;;;;;;;;13038176;22;20174;-78
2021/05/25 08:04:04;;;;;;;7.43;2.30;;;;;;;;;;13034322;22;20529;-78
2021/05/25 08:09:36;;;;;;;5.10;2.13;;;;;;;;;;13039554;22;20535;-79
2021/05/25 08:14:45;;;;;;;5.63;1.83;;;;;;;;;;12975057;22;20612;-78
2021/05/25 08:20:03;;;;;;;;;;;;;;;;;;;;;
2021/05/25 08:25:10;;;;;;;7.60;2.07;;;;;;;;;;13036314;22;20221;-78
2021/05/25 08:30:18;;;;;;;8.13;2.40;;;;;;;;;;13036697;22;20178;-78
2021/05/25 08:35:36;;;;;;;5.00;2.10;;;;;;;;;;13033809;22;20174;-78
2021/05/25 18:21:09;;;;;;;5.53;1.90;;;;;;;;;;13030197;22;20576;-78
2021/05/25 18:26:11;;;;;;;5.50;1.83;;;;;;;;;;13007826;22;20531;-80
2021/05/25 18:36:34;;;;;;;3.47;1.73;;;;;;;;;;13009893;22;20170;-81
2021/05/25 18:41:56;;;;;;;4.83;1.70;;;;;;;;;;13028032;22;20299;-79
2021/05/25 18:46:59;;;;;;;5.90;1.90;;;;;;;;;;13030704;22;20276;-79
2021/05/25 18:52:02;;;;;;;7.70;1.87;;;;;;;;;;13010874;22;20181;-78
2021/05/25 18:57:07;;;;;;;8.07;1.70;;;;;;;;;;13027916;22;20174;-79
2021/05/25 19:02:10;;;;;;;4.47;1.60;;;;;;;;;;13026725;22;20682;-80
2021/05/25 19:07:15;;;;;;;2.87;1.27;;;;;;;;;;13035537;22;20215;-80
2021/05/25 19:12:19;;;;;;;2.10;1.30;;;;;;;;;;13030167;22;20513;-80
2021/05/25 19:17:21;;;;;;;2.30;1.13;;;;;;;;;;13005529;22;20619;-78
2021/05/25 19:22:29;;;;;;;3.93;1.50;;;;;;;;;;13029961;22;20180;-80
2021/05/25 19:27:31;;;;;;;3.67;1.60;;;;;;;;;;13030249;22;20197;-80
2021/05/25 19:32:34;;;;;;;2.80;1.50;;;;;;;;;;13026968;22;20248;-79
2021/05/25 19:37:38;;;;;;;4.53;1.50;;;;;;;;;;13032067;22;20580;-78
2021/05/25 19:42:41;;;;;;;3.37;1.23;;;;;;;;;;13030706;22;20189;-80
2021/05/25 19:47:43;;;;;;;3.47;1.73;;;;;;;;;;13030378;22;20875;-80
2021/05/25 19:52:49;;;;;;;3.53;1.70;;;;;;;;;;13009503;22;20516;-81
2021/05/25 19:57:52;;;;;;;4.10;1.50;;;;;;;;;;13013449;22;20170;-80
2021/05/25 20:02:54;;;;;;;5.97;1.70;;;;;;;;;;13030484;22;20300;-79
2021/05/25 20:07:58;;;;;;;4.40;1.60;;;;;;;;;;13015475;22;20193;-80
2021/05/25 20:13:01;;;;;;;2.73;1.53;;;;;;;;;;13035474;22;20265;-79
2021/05/25 20:18:03;;;;;;;2.37;1.40;;;;;;;;;;13033709;22;20654;-79
2021/05/25 20:23:07;;;;;;;3.43;1.67;;;;;;;;;;13016335;22;20178;-80
2021/05/25 20:28:09;;;;;;;3.93;1.67;;;;;;;;;;13034302;22;20185;-80
2021/05/25 20:33:17;;;;;;;3.37;1.67;;;;;;;;;;13033767;22;20177;-80
2021/05/25 20:38:21;;;;;;;3.53;2.00;;;;;;;;;;13014432;22;20176;-79
2021/05/25 20:43:23;;;;;;;3.73;1.67;;;;;;;;;;13035642;22;20591;-80
2021/05/25 20:48:25;;;;;;;4.17;1.87;;;;;;;;;;13031599;22;20177;-79
2021/05/25 20:53:29;;;;;;;4.00;1.70;;;;;;;;;;13013931;22;20173;-80
2021/05/25 20:58:31;;;;;;;3.47;1.50;;;;;;;;;;13013177;22;20185;-78
2021/05/25 21:03:34;;;;;;;3.43;1.87;;;;;;;;;;13031749;22;20200;-77
2021/05/25 21:08:37;;;;;;;4.47;2.10;;;;;;;;;;13034437;22;20256;-79
2021/05/25 21:13:39;;;;;;;2.67;1.80;;;;;;;;;;13014469;22;20501;-79
2021/05/25 21:18:43;;;;;;;3.93;1.73;;;;;;;;;;13010795;22;20181;-79
2021/05/25 21:23:46;;;;;;;4.07;1.80;;;;;;;;;;13035097;22;20212;-79
2021/05/25 21:28:48;;;;;;;3.50;1.90;;;;;;;;;;13011678;22;20556;-79
2021/05/25 21:33:51;;;;;;;3.97;2.00;;;;;;;;;;13032178;22;20620;-79
2021/05/25 21:38:55;;;;;;;5.33;2.30;;;;;;;;;;13011819;22;20228;-78
2021/05/25 21:43:57;;;;;;;6.10;2.63;;;;;;;;;;13033639;22;20208;-79
2021/05/25 21:49:01;;;;;;;5.83;2.57;;;;;;;;;;13009408;22;20174;-78
2021/05/25 21:54:04;;;;;;;6.63;2.43;;;;;;;;;;13034957;22;20430;-79
2021/05/25 21:59:07;;;;;;;8.23;2.63;;;;;;;;;;13032656;22;20509;-79
2021/05/25 22:04:11;;;;;;;9.27;2.63;;;;;;;;;;13031211;22;20331;-79
2021/05/25 22:09:15;;;;;;;6.53;2.37;;;;;;;;;;13032642;22;20290;-80
2021/05/25 22:14:17;;;;;;;6.80;2.90;;;;;;;;;;13012283;22;20736;-77
2021/05/25 22:19:19;;;;;;;6.47;2.80;;;;;;;;;;13030242;22;20181;-80
2021/05/25 22:24:23;;;;;;;6.33;2.70;;;;;;;;;;13013857;22;20232;-77
2021/05/25 22:29:26;;;;;;;9.33;3.10;;;;;;;;;;13033878;22;20201;-78
2021/05/25 22:34:29;;;;;;;6.97;2.70;;;;;;;;;;13031818;22;20176;-78
2021/05/25 22:39:32;;;;;;;5.47;3.30;;;;;;;;;;13035186;22;20184;-79
2021/05/25 22:44:35;;;;;;;7.60;3.17;;;;;;;;;;13010314;22;20866;-79
2021/05/25 22:49:37;;;;;;;6.07;3.10;;;;;;;;;;13030831;22;20174;-79
2021/05/25 22:54:40;;;;;;;9.43;3.37;;;;;;;;;;13032873;22;20180;-79
2021/05/25 22:59:43;;;;;;;11.30;3.40;;;;;;;;;;13034076;22;20544;-80
2021/05/25 23:04:45;;;;;;;12.17;3.17;;;;;;;;;;13029883;22;20201;-79
2021/05/25 23:09:48;;;;;;;9.37;3.00;;;;;;;;;;13010429;22;20506;-79
2021/05/25 23:14:51;;;;;;;14.03;3.70;;;;;;;;;;13010160;22;20449;-78
2021/05/25 23:19:53;;;;;;;12.03;3.37;;;;;;;;;;13009840;22;20188;-79
2021/05/25 23:24:56;;;;;;;8.63;2.97;;;;;;;;;;13031744;22;20716;-79
2021/05/25 23:29:59;;;;;;;13.27;3.10;;;;;;;;;;13040947;22;20178;-79
2021/05/25 23:35:03;;;;;;;11.43;3.07;;;;;;;;;;13013108;22;20173;-80
2021/05/25 23:40:07;;;;;;;8.77;2.70;;;;;;;;;;13040128;22;20173;-79
2021/05/25 23:45:10;;;;;;;11.20;2.90;;;;;;;;;;13018227;22;20209;-79
2021/05/25 23:50:13;;;;;;;12.77;3.57;;;;;;;;;;13037154;22;20327;-80
2021/05/25 23:55:16;;;;;;;11.03;3.00;;;;;;;;;;13039277;22;20213;-80
